createdAt,value
2019-05-22T00:00:12.395Z,1003.28
2019-05-22T00:01:12.297Z,1003.26
2019-05-22T00:02:12.201Z,1003.28
2019-05-22T00:03:12.100Z,1003.35
2019-05-22T00:04:12.057Z,1003.30
2019-05-22T00:05:11.914Z,1003.34
2019-05-22T00:06:11.808Z,1003.28
2019-05-22T00:07:11.709Z,1003.33
2019-05-22T00:08:11.611Z,1003.32
2019-05-22T00:09:11.522Z,1003.29
2019-05-22T00:10:11.425Z,1003.34
2019-05-22T00:11:11.318Z,1003.30
2019-05-22T00:12:11.219Z,1003.29
2019-05-22T00:13:11.123Z,1003.29
2019-05-22T00:14:11.030Z,1003.34
2019-05-22T00:15:10.925Z,1003.29
2019-05-22T00:16:10.830Z,1003.30
2019-05-22T00:17:10.733Z,1003.28
2019-05-22T00:18:10.634Z,1003.31
2019-05-22T00:19:10.537Z,1003.28
2019-05-22T00:20:10.450Z,1003.30
2019-05-22T00:21:10.341Z,1003.41
2019-05-22T00:22:10.247Z,1003.40
2019-05-22T00:23:10.157Z,1003.38
2019-05-22T00:24:10.047Z,1003.39
2019-05-22T00:25:09.977Z,1003.45
2019-05-22T00:26:09.850Z,1003.47
2019-05-22T00:27:09.752Z,1003.45
2019-05-22T00:28:09.657Z,1003.47
2019-05-22T00:29:09.557Z,1003.51
2019-05-22T00:30:09.471Z,1003.52
2019-05-22T00:31:09.359Z,1003.51
2019-05-22T00:32:09.262Z,1003.49
2019-05-22T00:33:09.163Z,1003.51
2019-05-22T00:34:09.066Z,1003.49
2019-05-22T00:35:08.966Z,1003.53
2019-05-22T00:36:08.869Z,1003.53
2019-05-22T00:37:08.771Z,1003.54
2019-05-22T00:38:08.687Z,1003.55
2019-05-22T00:39:08.607Z,1003.50
2019-05-22T00:40:08.480Z,1003.49
2019-05-22T00:41:08.380Z,1003.53
2019-05-22T00:42:08.283Z,1003.53
2019-05-22T00:43:13.783Z,1003.55
2019-05-22T00:44:08.084Z,1003.56
2019-05-22T00:45:08.012Z,1003.60
2019-05-22T00:46:07.958Z,1003.63
2019-05-22T00:47:07.790Z,1003.67
2019-05-22T00:48:07.697Z,1003.67
2019-05-22T00:49:07.598Z,1003.65
2019-05-22T00:50:07.500Z,1003.68
2019-05-22T00:51:07.398Z,1003.67
2019-05-22T00:52:07.298Z,1003.65
2019-05-22T00:53:07.203Z,1003.66
2019-05-22T00:54:07.108Z,1003.66
2019-05-22T00:55:07.011Z,1003.70
2019-05-22T00:56:06.911Z,1003.70
2019-05-22T00:57:06.808Z,1003.68
2019-05-22T00:58:06.713Z,1003.72
2019-05-22T00:59:06.615Z,1003.72
2019-05-22T01:00:06.516Z,1003.71
2019-05-22T01:01:06.417Z,1003.72
2019-05-22T01:02:06.354Z,1003.74
2019-05-22T01:03:06.223Z,1003.77
2019-05-22T01:04:06.143Z,1003.80
2019-05-22T01:05:06.026Z,1003.83
2019-05-22T01:06:05.999Z,1003.76
2019-05-22T01:07:05.837Z,1003.88
2019-05-22T01:08:05.733Z,1003.83
2019-05-22T01:09:05.635Z,1003.87
2019-05-22T01:10:05.601Z,1003.91
2019-05-22T01:11:05.439Z,1003.90
2019-05-22T01:12:05.342Z,1003.87
2019-05-22T01:13:05.243Z,1003.86
2019-05-22T01:14:05.143Z,1003.96
2019-05-22T01:15:05.097Z,1003.90
2019-05-22T01:16:04.950Z,1003.93
2019-05-22T01:17:04.850Z,1003.93
2019-05-22T01:18:04.751Z,1003.90
2019-05-22T01:19:04.655Z,1003.89
2019-05-22T01:20:04.555Z,1003.90
2019-05-22T01:21:04.456Z,1003.92
2019-05-22T01:22:04.357Z,1003.90
2019-05-22T01:23:04.258Z,1003.93
2019-05-22T01:24:04.162Z,1003.87
2019-05-22T01:25:04.064Z,1003.88
2019-05-22T01:26:03.975Z,1003.93
2019-05-22T01:27:03.957Z,1003.89
2019-05-22T01:28:03.772Z,1003.88
2019-05-22T01:29:03.669Z,1003.86
2019-05-22T01:30:03.630Z,1003.87
2019-05-22T01:31:03.495Z,1003.86
2019-05-22T01:32:03.375Z,1003.85
2019-05-22T01:33:03.329Z,1003.88
2019-05-22T01:34:03.180Z,1003.87
2019-05-22T01:35:03.084Z,1003.88
2019-05-22T01:36:02.985Z,1003.87
2019-05-22T01:37:02.885Z,1003.90
2019-05-22T01:38:02.787Z,1003.90
2019-05-22T01:39:02.936Z,1003.86
2019-05-22T01:40:02.591Z,1003.93
2019-05-22T01:41:02.504Z,1003.90
2019-05-22T01:42:02.393Z,1003.91
2019-05-22T01:43:02.305Z,1003.92
2019-05-22T01:44:02.197Z,1003.97
2019-05-22T01:45:06.545Z,1003.99
2019-05-22T01:46:02.002Z,1004.00
2019-05-22T01:47:01.947Z,1004.04
2019-05-22T01:48:01.869Z,1004.06
2019-05-22T01:49:01.708Z,1004.04
2019-05-22T01:50:01.619Z,1004.06
2019-05-22T01:51:01.571Z,1004.11
2019-05-22T01:52:01.412Z,1004.06
2019-05-22T01:53:01.313Z,1004.08
2019-05-22T01:54:01.223Z,1004.10
2019-05-22T01:55:01.118Z,1004.12
2019-05-22T01:56:01.019Z,1004.10
2019-05-22T01:57:00.921Z,1004.09
2019-05-22T01:58:00.823Z,1004.08
2019-05-22T01:59:00.738Z,1004.11
2019-05-22T02:00:00.640Z,1004.15
2019-05-22T02:01:00.532Z,1004.13
2019-05-22T02:02:00.433Z,1004.14
2019-05-22T02:03:00.596Z,1004.14
2019-05-22T02:04:00.237Z,1004.12
2019-05-22T02:05:00.134Z,1004.06
2019-05-22T02:06:00.036Z,1004.09
2019-05-22T02:06:59.941Z,1004.03
2019-05-22T02:07:59.908Z,1004.03
2019-05-22T02:08:59.742Z,1003.98
2019-05-22T02:09:59.643Z,1003.96
2019-05-22T02:10:59.549Z,1003.97
2019-05-22T02:11:59.446Z,1004.00
2019-05-22T02:12:59.350Z,1003.97
2019-05-22T02:13:59.254Z,1003.96
2019-05-22T02:14:59.159Z,1003.98
2019-05-22T02:15:59.056Z,1003.97
2019-05-22T02:16:58.954Z,1004.09
2019-05-22T02:17:58.858Z,1004.07
2019-05-22T02:18:58.759Z,1004.01
2019-05-22T02:19:58.660Z,1004.06
2019-05-22T02:20:58.559Z,1004.05
2019-05-22T02:21:58.465Z,1004.07
2019-05-22T02:22:58.364Z,1004.11
2019-05-22T02:23:58.266Z,1004.07
2019-05-22T02:24:58.170Z,1004.11
2019-05-22T02:25:58.070Z,1004.09
2019-05-22T02:26:57.970Z,1004.11
2019-05-22T02:27:57.893Z,1004.13
2019-05-22T02:28:57.843Z,1004.09
2019-05-22T02:29:57.676Z,1004.11
2019-05-22T02:30:57.577Z,1004.08
2019-05-22T02:31:57.476Z,1004.09
2019-05-22T02:32:57.383Z,1004.11
2019-05-22T02:33:57.285Z,1004.07
2019-05-22T02:34:57.192Z,1004.07
2019-05-22T02:35:57.099Z,1004.09
2019-05-22T02:36:56.988Z,1004.07
2019-05-22T02:37:56.895Z,1004.11
2019-05-22T02:38:56.792Z,1004.05
2019-05-22T02:39:56.688Z,1004.13
2019-05-22T02:40:56.595Z,1004.11
2019-05-22T02:41:56.511Z,1004.10
2019-05-22T02:42:56.398Z,1004.14
2019-05-22T02:43:56.296Z,1004.14
2019-05-22T02:44:56.198Z,1004.17
2019-05-22T02:45:56.098Z,1004.20
2019-05-22T02:46:56.003Z,1004.19
2019-05-22T02:47:55.905Z,1004.23
2019-05-22T02:48:55.859Z,1004.22
2019-05-22T02:49:55.717Z,1004.26
2019-05-22T02:50:55.610Z,1004.23
2019-05-22T02:51:55.508Z,1004.28
2019-05-22T02:52:55.410Z,1004.21
2019-05-22T02:53:55.313Z,1004.25
2019-05-22T02:54:55.215Z,1004.24
2019-05-22T02:55:55.117Z,1004.29
2019-05-22T02:56:55.016Z,1004.30
2019-05-22T02:57:54.922Z,1004.29
2019-05-22T02:58:54.819Z,1004.30
2019-05-22T02:59:54.722Z,1004.29
2019-05-22T03:00:54.623Z,1004.30
2019-05-22T03:01:54.535Z,1004.28
2019-05-22T03:02:54.427Z,1004.28
2019-05-22T03:03:54.332Z,1004.29
2019-05-22T03:04:54.229Z,1004.29
2019-05-22T03:05:54.130Z,1004.29
2019-05-22T03:06:54.032Z,1004.29
2019-05-22T03:07:53.939Z,1004.29
2019-05-22T03:08:53.841Z,1004.17
2019-05-22T03:09:53.767Z,1004.28
2019-05-22T03:10:53.650Z,1004.29
2019-05-22T03:11:53.540Z,1004.28
2019-05-22T03:12:53.440Z,1004.31
2019-05-22T03:13:53.345Z,1004.34
2019-05-22T03:14:53.249Z,1004.33
2019-05-22T03:15:53.152Z,1004.36
2019-05-22T03:16:53.049Z,1004.39
2019-05-22T03:17:52.948Z,1004.45
2019-05-22T03:19:07.822Z,1004.48
2019-05-22T03:19:52.753Z,1004.50
2019-05-22T03:20:52.651Z,1004.48
2019-05-22T03:21:52.554Z,1004.55
2019-05-22T03:22:52.453Z,1004.56
2019-05-22T03:23:52.361Z,1004.58
2019-05-22T03:24:52.261Z,1004.56
2019-05-22T03:25:52.161Z,1004.54
2019-05-22T03:26:52.060Z,1004.56
2019-05-22T03:27:51.968Z,1004.55
2019-05-22T03:28:51.865Z,1004.61
2019-05-22T03:29:51.806Z,1004.59
2019-05-22T03:30:51.741Z,1004.58
2019-05-22T03:31:51.575Z,1004.57
2019-05-22T03:32:51.470Z,1004.56
2019-05-22T03:33:51.371Z,1004.54
2019-05-22T03:34:51.279Z,1004.58
2019-05-22T03:35:51.618Z,1004.62
2019-05-22T03:36:51.077Z,1004.56
2019-05-22T03:37:50.976Z,1004.55
2019-05-22T03:38:50.878Z,1004.59
2019-05-22T03:39:50.778Z,1004.55
2019-05-22T03:40:50.682Z,1004.54
2019-05-22T03:41:50.581Z,1004.52
2019-05-22T03:42:50.481Z,1004.57
2019-05-22T03:43:50.382Z,1004.63
2019-05-22T03:44:50.283Z,1004.57
2019-05-22T03:45:50.186Z,1004.65
2019-05-22T03:46:50.087Z,1004.65
2019-05-22T03:47:49.991Z,1004.62
2019-05-22T03:48:49.889Z,1004.67
2019-05-22T03:49:49.792Z,1004.67
2019-05-22T03:50:49.719Z,1004.68
2019-05-22T03:51:49.589Z,1004.68
2019-05-22T03:52:49.496Z,1004.69
2019-05-22T03:53:49.394Z,1004.73
2019-05-22T03:54:49.295Z,1004.65
2019-05-22T03:55:49.244Z,1004.73
2019-05-22T03:56:49.097Z,1004.72
2019-05-22T03:57:48.997Z,1004.72
2019-05-22T03:58:48.898Z,1004.71
2019-05-22T03:59:48.799Z,1004.74
2019-05-22T04:00:48.701Z,1004.72
2019-05-22T04:01:48.601Z,1004.76
2019-05-22T04:02:48.500Z,1004.77
2019-05-22T04:03:48.407Z,1004.79
2019-05-22T04:04:48.310Z,1004.80
2019-05-22T04:05:48.205Z,1004.77
2019-05-22T04:06:48.116Z,1004.80
2019-05-22T04:07:48.022Z,1004.80
2019-05-22T04:08:47.911Z,1004.78
2019-05-22T04:09:47.808Z,1004.81
2019-05-22T04:10:47.756Z,1004.84
2019-05-22T04:11:47.694Z,1004.85
2019-05-22T04:12:47.509Z,1004.86
2019-05-22T04:13:47.411Z,1004.82
2019-05-22T04:14:47.309Z,1004.87
2019-05-22T04:15:47.213Z,1004.89
2019-05-22T04:16:47.113Z,1004.91
2019-05-22T04:17:47.022Z,1004.89
2019-05-22T04:18:46.923Z,1004.91
2019-05-22T04:19:50.113Z,1004.94
2019-05-22T04:20:46.716Z,1004.91
2019-05-22T04:21:46.618Z,1004.95
2019-05-22T04:22:46.518Z,1004.87
2019-05-22T04:23:46.419Z,1004.94
2019-05-22T04:24:46.321Z,1004.87
2019-05-22T04:25:46.221Z,1004.92
2019-05-22T04:26:46.119Z,1004.97
2019-05-22T04:27:46.021Z,1004.96
2019-05-22T04:28:45.922Z,1005.00
2019-05-22T04:29:45.820Z,1005.06
2019-05-22T04:30:45.745Z,1004.98
2019-05-22T04:31:45.679Z,1005.04
2019-05-22T04:32:45.523Z,1005.05
2019-05-22T04:33:45.433Z,1005.02
2019-05-22T04:34:45.325Z,1005.04
2019-05-22T04:35:45.228Z,1005.04
2019-05-22T04:36:45.126Z,1005.02
2019-05-22T04:37:45.033Z,1005.04
2019-05-22T04:38:44.928Z,1005.01
2019-05-22T04:39:44.830Z,1005.03
2019-05-22T04:40:44.728Z,1005.03
2019-05-22T04:41:44.662Z,1005.07
2019-05-22T04:42:44.530Z,1005.03
2019-05-22T04:43:44.430Z,1005.03
2019-05-22T04:44:44.330Z,1005.07
2019-05-22T04:45:44.232Z,1005.05
2019-05-22T04:46:44.141Z,1005.02
2019-05-22T04:47:44.035Z,1005.07
2019-05-22T04:48:46.098Z,1005.06
2019-05-22T04:49:43.836Z,1005.06
2019-05-22T04:50:43.735Z,1004.98
2019-05-22T04:51:43.703Z,1005.05
2019-05-22T04:52:43.537Z,1005.08
2019-05-22T04:53:43.435Z,1005.10
2019-05-22T04:54:43.336Z,1005.07
2019-05-22T04:55:43.244Z,1005.14
2019-05-22T04:56:43.137Z,1005.14
2019-05-22T04:57:43.040Z,1005.15
2019-05-22T04:58:42.938Z,1005.17
2019-05-22T04:59:42.839Z,1005.16
2019-05-22T05:00:42.747Z,1005.15
2019-05-22T05:01:42.640Z,1005.24
2019-05-22T05:02:42.541Z,1005.22
2019-05-22T05:03:42.440Z,1005.16
2019-05-22T05:04:42.344Z,1005.19
2019-05-22T05:05:42.244Z,1005.13
2019-05-22T05:06:42.142Z,1005.15
2019-05-22T05:07:42.043Z,1005.19
2019-05-22T05:08:41.944Z,1005.19
2019-05-22T05:09:41.846Z,1005.20
2019-05-22T05:10:41.745Z,1005.16
2019-05-22T05:11:41.691Z,1005.22
2019-05-22T05:12:41.606Z,1005.25
2019-05-22T05:13:41.449Z,1005.23
2019-05-22T05:14:41.347Z,1005.26
2019-05-22T05:15:41.245Z,1005.28
2019-05-22T05:16:41.150Z,1005.31
2019-05-22T05:17:41.050Z,1005.27
2019-05-22T05:18:40.945Z,1005.30
2019-05-22T05:19:40.854Z,1005.30
2019-05-22T05:20:40.750Z,1005.37
2019-05-22T05:21:40.651Z,1005.33
2019-05-22T05:22:40.551Z,1005.36
2019-05-22T05:23:40.451Z,1005.39
2019-05-22T05:24:40.350Z,1005.37
2019-05-22T05:25:40.250Z,1005.39
2019-05-22T05:26:40.150Z,1005.34
2019-05-22T05:27:40.052Z,1005.38
2019-05-22T05:28:39.953Z,1005.32
2019-05-22T05:29:39.854Z,1005.36
2019-05-22T05:30:39.750Z,1005.38
2019-05-22T05:31:39.663Z,1005.38
2019-05-22T05:32:39.607Z,1005.34
2019-05-22T05:33:39.456Z,1005.37
2019-05-22T05:34:39.353Z,1005.40
2019-05-22T05:35:39.252Z,1005.39
2019-05-22T05:36:39.151Z,1005.35
2019-05-22T05:37:39.053Z,1005.35
2019-05-22T05:38:38.958Z,1005.38
2019-05-22T05:39:38.856Z,1005.32
2019-05-22T05:40:38.780Z,1005.42
2019-05-22T05:41:38.655Z,1005.39
2019-05-22T05:42:38.556Z,1005.39
2019-05-22T05:43:38.453Z,1005.43
2019-05-22T05:44:38.355Z,1005.38
2019-05-22T05:45:38.257Z,1005.41
2019-05-22T05:46:38.159Z,1005.42
2019-05-22T05:47:38.059Z,1005.40
2019-05-22T05:48:38.007Z,1005.41
2019-05-22T05:49:37.860Z,1005.44
2019-05-22T05:50:39.893Z,1005.43
2019-05-22T05:51:37.660Z,1005.48
2019-05-22T05:52:37.635Z,1005.42
2019-05-22T05:53:37.459Z,1005.45
2019-05-22T05:54:37.359Z,1005.44
2019-05-22T05:55:37.260Z,1005.45
2019-05-22T05:56:37.508Z,1005.41
2019-05-22T05:57:37.061Z,1005.41
2019-05-22T05:58:36.962Z,1005.58
2019-05-22T05:59:36.861Z,1005.45
2019-05-22T06:00:36.762Z,1005.49
2019-05-22T06:01:36.662Z,1005.43
2019-05-22T06:02:36.559Z,1005.45
2019-05-22T06:03:36.463Z,1005.47
2019-05-22T06:04:36.365Z,1005.44
2019-05-22T06:05:36.263Z,1005.50
2019-05-22T06:06:36.163Z,1005.48
2019-05-22T06:07:36.060Z,1005.46
2019-05-22T06:08:35.961Z,1005.51
2019-05-22T06:09:35.860Z,1005.46
2019-05-22T06:10:35.763Z,1005.54
2019-05-22T06:11:35.671Z,1005.52
2019-05-22T06:12:35.617Z,1005.50
2019-05-22T06:13:35.544Z,1005.54
2019-05-22T06:14:35.361Z,1005.48
2019-05-22T06:15:46.460Z,1005.41
2019-05-22T06:16:35.164Z,1005.42
2019-05-22T06:17:35.062Z,1005.47
2019-05-22T06:18:34.989Z,1005.42
2019-05-22T06:19:34.864Z,1005.42
2019-05-22T06:20:34.767Z,1005.46
2019-05-22T06:21:34.671Z,1005.41
2019-05-22T06:22:34.565Z,1005.43
2019-05-22T06:23:34.463Z,1005.45
2019-05-22T06:24:34.364Z,1005.47
2019-05-22T06:25:34.264Z,1005.47
2019-05-22T06:26:34.167Z,1005.55
2019-05-22T06:27:34.066Z,1005.51
2019-05-22T06:28:33.966Z,1005.62
2019-05-22T06:29:33.870Z,1005.55
2019-05-22T06:30:33.765Z,1005.66
2019-05-22T06:31:33.675Z,1005.61
2019-05-22T06:32:33.598Z,1005.67
2019-05-22T06:33:33.528Z,1005.68
2019-05-22T06:34:33.365Z,1005.68
2019-05-22T06:35:33.301Z,1005.71
2019-05-22T06:36:33.166Z,1005.72
2019-05-22T06:37:33.072Z,1005.78
2019-05-22T06:38:32.967Z,1005.79
2019-05-22T06:39:32.865Z,1005.76
2019-05-22T06:40:32.768Z,1005.74
2019-05-22T06:41:32.668Z,1005.76
2019-05-22T06:42:32.568Z,1005.76
2019-05-22T06:43:32.468Z,1005.78
2019-05-22T06:44:32.372Z,1005.77
2019-05-22T06:45:35.200Z,1005.79
2019-05-22T06:46:32.171Z,1005.74
2019-05-22T06:47:32.070Z,1005.80
2019-05-22T06:48:31.970Z,1005.81
2019-05-22T06:49:31.870Z,1005.82
2019-05-22T06:50:31.770Z,1005.86
2019-05-22T06:51:31.672Z,1005.93
2019-05-22T06:52:31.585Z,1005.92
2019-05-22T06:53:31.486Z,1005.90
2019-05-22T06:54:31.376Z,1005.95
2019-05-22T06:55:31.276Z,1005.94
2019-05-22T06:56:31.172Z,1005.97
2019-05-22T06:57:31.074Z,1005.97
2019-05-22T06:58:30.973Z,1006.02
2019-05-22T06:59:30.873Z,1006.02
2019-05-22T07:00:30.772Z,1006.05
2019-05-22T07:01:30.678Z,1006.05
2019-05-22T07:02:30.571Z,1006.00
2019-05-22T07:03:30.473Z,1006.05
2019-05-22T07:04:30.376Z,1005.93
2019-05-22T07:05:30.276Z,1006.05
2019-05-22T07:06:30.173Z,1006.07
2019-05-22T07:07:30.073Z,1006.06
2019-05-22T07:08:29.972Z,1006.14
2019-05-22T07:09:29.874Z,1006.12
2019-05-22T07:10:29.771Z,1006.09
2019-05-22T07:11:29.677Z,1006.12
2019-05-22T07:12:29.573Z,1006.08
2019-05-22T07:13:29.542Z,1006.09
2019-05-22T07:14:29.373Z,1006.15
2019-05-22T07:15:29.273Z,1006.10
2019-05-22T07:16:29.175Z,1006.13
2019-05-22T07:17:29.089Z,1006.09
2019-05-22T07:18:28.983Z,1006.17
2019-05-22T07:19:28.872Z,1006.14
2019-05-22T07:20:28.781Z,1006.16
2019-05-22T07:21:34.031Z,1006.14
2019-05-22T07:22:28.573Z,1006.16
2019-05-22T07:23:28.474Z,1006.19
2019-05-22T07:24:28.371Z,1006.16
2019-05-22T07:25:28.272Z,1006.16
2019-05-22T07:26:28.171Z,1006.11
2019-05-22T07:27:28.070Z,1006.14
2019-05-22T07:28:27.969Z,1006.11
2019-05-22T07:29:27.872Z,1006.13
2019-05-22T07:30:27.772Z,1006.16
2019-05-22T07:31:27.673Z,1006.23
2019-05-22T07:32:30.755Z,1006.24
2019-05-22T07:33:27.520Z,1006.21
2019-05-22T07:34:27.430Z,1006.24
2019-05-22T07:35:45.738Z,1006.28
2019-05-22T07:36:27.174Z,1006.24
2019-05-22T07:37:27.072Z,1006.27
2019-05-22T07:38:26.971Z,1006.24
2019-05-22T07:39:26.877Z,1006.12
2019-05-22T07:40:26.780Z,1006.17
2019-05-22T07:41:26.683Z,1006.14
2019-05-22T07:42:26.571Z,1006.25
2019-05-22T07:43:26.479Z,1006.18
2019-05-22T07:44:26.374Z,1006.19
2019-05-22T07:45:26.276Z,1006.16
2019-05-22T07:46:26.170Z,1006.26
2019-05-22T07:47:26.237Z,1006.19
2019-05-22T07:48:25.970Z,1006.21
2019-05-22T07:49:25.881Z,1006.23
2019-05-22T07:50:25.773Z,1006.31
2019-05-22T07:51:25.674Z,1006.35
2019-05-22T07:52:25.572Z,1006.36
2019-05-22T07:53:25.500Z,1006.27
2019-05-22T07:54:25.426Z,1006.30
2019-05-22T07:55:25.275Z,1006.33
2019-05-22T07:56:25.173Z,1006.31
2019-05-22T07:57:25.074Z,1006.35
2019-05-22T07:58:24.969Z,1006.33
2019-05-22T07:59:24.883Z,1006.37
2019-05-22T08:00:24.774Z,1006.30
2019-05-22T08:01:24.674Z,1006.34
2019-05-22T08:02:24.574Z,1006.37
2019-05-22T08:03:24.473Z,1006.42
2019-05-22T08:04:24.375Z,1006.31
2019-05-22T08:05:24.275Z,1006.38
2019-05-22T08:06:24.176Z,1006.42
2019-05-22T08:07:24.077Z,1006.41
2019-05-22T08:08:23.980Z,1006.47
2019-05-22T08:09:23.875Z,1006.51
2019-05-22T08:10:23.777Z,1006.51
2019-05-22T08:11:23.675Z,1006.56
2019-05-22T08:12:23.576Z,1006.51
2019-05-22T08:13:23.479Z,1006.52
2019-05-22T08:14:23.464Z,1006.53
2019-05-22T08:15:23.294Z,1006.54
2019-05-22T08:16:23.179Z,1006.58
2019-05-22T08:17:23.077Z,1006.60
2019-05-22T08:18:22.987Z,1006.55
2019-05-22T08:19:22.878Z,1006.65
2019-05-22T08:20:22.780Z,1006.57
2019-05-22T08:21:23.645Z,1006.58
2019-05-22T08:22:22.576Z,1006.63
2019-05-22T08:23:22.534Z,1006.59
2019-05-22T08:24:22.380Z,1006.62
2019-05-22T08:25:22.279Z,1006.61
2019-05-22T08:26:22.180Z,1006.65
2019-05-22T08:27:22.081Z,1006.72
2019-05-22T08:28:21.986Z,1006.64
2019-05-22T08:29:21.890Z,1006.64
2019-05-22T08:30:21.783Z,1006.73
2019-05-22T08:31:21.682Z,1006.70
2019-05-22T08:32:21.583Z,1006.67
2019-05-22T08:33:21.482Z,1006.67
2019-05-22T08:34:21.438Z,1006.59
2019-05-22T08:35:21.294Z,1006.71
2019-05-22T08:36:21.185Z,1006.66
2019-05-22T08:37:21.085Z,1006.71
2019-05-22T08:38:20.983Z,1006.67
2019-05-22T08:39:20.883Z,1006.69
2019-05-22T08:40:20.797Z,1006.70
2019-05-22T08:41:20.691Z,1006.65
2019-05-22T08:42:20.588Z,1006.67
2019-05-22T08:43:20.485Z,1006.65
2019-05-22T08:44:20.394Z,1006.73
2019-05-22T08:45:20.286Z,1006.70
2019-05-22T08:46:20.187Z,1006.75
2019-05-22T08:47:20.097Z,1006.70
2019-05-22T08:48:20.004Z,1006.80
2019-05-22T08:49:19.890Z,1006.73
2019-05-22T08:50:19.787Z,1006.78
2019-05-22T08:51:19.689Z,1006.77
2019-05-22T08:52:23.507Z,1006.86
2019-05-22T08:53:19.486Z,1006.67
2019-05-22T08:54:19.429Z,1006.82
2019-05-22T08:55:19.365Z,1006.83
2019-05-22T08:56:19.189Z,1006.88
2019-05-22T08:57:19.088Z,1006.83
2019-05-22T08:58:18.987Z,1006.83
2019-05-22T08:59:20.092Z,1006.79
2019-05-22T09:00:18.790Z,1006.81
2019-05-22T09:01:18.690Z,1006.78
2019-05-22T09:02:18.589Z,1006.78
2019-05-22T09:03:18.492Z,1006.82
2019-05-22T09:04:18.394Z,1006.79
2019-05-22T09:05:21.167Z,1006.83
2019-05-22T09:06:18.223Z,1006.77
2019-05-22T09:07:18.174Z,1006.80
2019-05-22T09:08:17.997Z,1006.80
2019-05-22T09:09:17.893Z,1006.82
2019-05-22T09:10:17.793Z,1006.79
2019-05-22T09:11:17.694Z,1006.80
2019-05-22T09:12:17.594Z,1006.81
2019-05-22T09:13:17.506Z,1006.87
2019-05-22T09:14:17.399Z,1006.85
2019-05-22T09:15:17.328Z,1006.94
2019-05-22T09:16:17.195Z,1006.90
2019-05-22T09:17:17.096Z,1006.90
2019-05-22T09:18:16.997Z,1006.99
2019-05-22T09:19:16.907Z,1007.00
2019-05-22T09:20:16.798Z,1007.00
2019-05-22T09:21:16.714Z,1006.98
2019-05-22T09:22:16.607Z,1007.04
2019-05-22T09:23:16.505Z,1007.03
2019-05-22T09:24:16.399Z,1006.97
2019-05-22T09:25:16.689Z,1007.06
2019-05-22T09:26:16.200Z,1007.05
2019-05-22T09:27:16.135Z,1007.05
2019-05-22T09:28:16.002Z,1007.05
2019-05-22T09:29:15.904Z,1007.06
2019-05-22T09:30:15.803Z,1007.05
2019-05-22T09:31:15.709Z,1007.14
2019-05-22T09:32:15.604Z,1007.04
2019-05-22T09:33:15.505Z,1007.11
2019-05-22T09:34:15.408Z,1007.15
2019-05-22T09:35:15.359Z,1007.16
2019-05-22T09:36:15.215Z,1007.09
2019-05-22T09:37:15.112Z,1007.17
2019-05-22T09:38:15.014Z,1007.15
2019-05-22T09:39:14.912Z,1007.23
2019-05-22T09:40:14.813Z,1007.18
2019-05-22T09:41:14.713Z,1007.18
2019-05-22T09:42:14.620Z,1007.16
2019-05-22T09:43:14.516Z,1007.22
2019-05-22T09:44:15.437Z,1007.26
2019-05-22T09:45:14.324Z,1007.24
2019-05-22T09:46:14.217Z,1007.23
2019-05-22T09:47:14.119Z,1007.21
2019-05-22T09:48:14.019Z,1007.27
2019-05-22T09:49:13.922Z,1007.31
2019-05-22T09:50:13.823Z,1007.26
2019-05-22T09:51:13.724Z,1007.28
2019-05-22T09:52:13.625Z,1007.25
2019-05-22T09:53:13.530Z,1007.26
2019-05-22T09:54:13.425Z,1007.24
2019-05-22T09:55:13.351Z,1007.30
2019-05-22T09:56:13.285Z,1007.27
2019-05-22T09:57:13.130Z,1007.34
2019-05-22T09:58:13.030Z,1007.28
2019-05-22T09:59:12.934Z,1007.33
2019-05-22T10:00:12.835Z,1007.27
2019-05-22T10:01:12.735Z,1007.33
2019-05-22T10:02:12.639Z,1007.28
2019-05-22T10:03:12.540Z,1007.33
2019-05-22T10:04:12.440Z,1007.40
2019-05-22T10:05:12.352Z,1007.34
2019-05-22T10:06:12.241Z,1007.35
2019-05-22T10:07:12.143Z,1007.31
2019-05-22T10:08:12.046Z,1007.39
2019-05-22T10:09:11.946Z,1007.35
2019-05-22T10:10:11.849Z,1007.35
2019-05-22T10:11:11.751Z,1007.35
2019-05-22T10:12:11.649Z,1007.41
2019-05-22T10:13:11.552Z,1007.36
2019-05-22T10:14:11.452Z,1007.41
2019-05-22T10:15:11.352Z,1007.44
2019-05-22T10:16:11.309Z,1007.47
2019-05-22T10:17:11.168Z,1007.43
2019-05-22T10:18:11.088Z,1007.47
2019-05-22T10:19:10.971Z,1007.48
2019-05-22T10:20:10.858Z,1007.47
2019-05-22T10:21:10.761Z,1007.46
2019-05-22T10:22:10.701Z,1007.45
2019-05-22T10:23:15.427Z,1007.41
2019-05-22T10:24:10.465Z,1007.46
2019-05-22T10:25:15.822Z,1007.48
2019-05-22T10:26:10.271Z,1007.46
2019-05-22T10:27:10.171Z,1007.47
2019-05-22T10:28:10.073Z,1007.46
2019-05-22T10:29:09.974Z,1007.52
2019-05-22T10:30:09.877Z,1007.56
2019-05-22T10:31:10.364Z,1007.56
2019-05-22T10:32:09.675Z,1007.59
2019-05-22T10:33:09.579Z,1007.58
2019-05-22T10:34:09.485Z,1007.63
2019-05-22T10:35:09.379Z,1007.60
2019-05-22T10:36:09.289Z,1007.63
2019-05-22T10:37:09.222Z,1007.58
2019-05-22T10:38:09.085Z,1007.61
2019-05-22T10:39:08.985Z,1007.68
2019-05-22T10:40:08.884Z,1007.68
2019-05-22T10:41:08.792Z,1007.67
2019-05-22T10:42:08.690Z,1007.64
2019-05-22T10:43:08.592Z,1007.67
2019-05-22T10:44:08.491Z,1007.59
2019-05-22T10:45:08.394Z,1007.63
2019-05-22T10:46:08.463Z,1007.61
2019-05-22T10:47:08.208Z,1007.65
2019-05-22T10:48:08.101Z,1007.68
2019-05-22T10:49:07.996Z,1007.61
2019-05-22T10:50:07.894Z,1007.65
2019-05-22T10:51:07.806Z,1007.68
2019-05-22T10:52:07.700Z,1007.68
2019-05-22T10:53:07.600Z,1007.66
2019-05-22T10:54:07.507Z,1007.74
2019-05-22T10:55:07.411Z,1007.68
2019-05-22T10:56:07.325Z,1007.68
2019-05-22T10:57:07.258Z,1007.69
2019-05-22T10:58:07.124Z,1007.72
2019-05-22T10:59:07.009Z,1007.69
2019-05-22T11:00:06.915Z,1007.73
2019-05-22T11:01:06.813Z,1007.71
2019-05-22T11:02:06.718Z,1007.73
2019-05-22T11:03:06.614Z,1007.75
2019-05-22T11:04:06.514Z,1007.75
2019-05-22T11:05:06.421Z,1007.78
2019-05-22T11:06:07.838Z,1007.75
2019-05-22T11:07:06.216Z,1007.72
2019-05-22T11:08:06.118Z,1007.75
2019-05-22T11:09:06.021Z,1007.85
2019-05-22T11:10:05.922Z,1007.85
2019-05-22T11:11:05.821Z,1007.85
2019-05-22T11:12:05.730Z,1007.78
2019-05-22T11:13:05.656Z,1007.78
2019-05-22T11:14:09.123Z,1007.83
2019-05-22T11:15:05.424Z,1007.84
2019-05-22T11:16:05.336Z,1007.84
2019-05-22T11:17:05.261Z,1007.86
2019-05-22T11:18:05.186Z,1007.84
2019-05-22T11:19:05.027Z,1007.86
2019-05-22T11:20:04.930Z,1007.88
2019-05-22T11:21:04.831Z,1007.87
2019-05-22T11:22:04.741Z,1007.88
2019-05-22T11:23:04.630Z,1007.91
2019-05-22T11:24:04.533Z,1007.92
2019-05-22T11:25:04.434Z,1007.91
2019-05-22T11:26:04.333Z,1007.94
2019-05-22T11:27:04.235Z,1007.93
2019-05-22T11:28:04.140Z,1007.93
2019-05-22T11:29:04.038Z,1007.88
2019-05-22T11:30:03.938Z,1007.90
2019-05-22T11:31:03.846Z,1007.95
2019-05-22T11:32:03.763Z,1007.98
2019-05-22T11:33:03.640Z,1008.03
2019-05-22T11:34:03.544Z,1008.12
2019-05-22T11:35:03.442Z,1008.00
2019-05-22T11:36:03.340Z,1008.05
2019-05-22T11:37:03.248Z,1008.03
2019-05-22T11:38:03.247Z,1007.99
2019-05-22T11:39:03.048Z,1008.11
2019-05-22T11:40:02.963Z,1008.10
2019-05-22T11:41:02.906Z,1008.09
2019-05-22T11:42:02.751Z,1008.11
2019-05-22T11:43:02.651Z,1008.06
2019-05-22T11:44:02.557Z,1008.02
2019-05-22T11:45:02.452Z,1008.09
2019-05-22T11:46:02.351Z,1008.04
2019-05-22T11:47:02.260Z,1008.11
2019-05-22T11:48:02.156Z,1008.09
2019-05-22T11:49:02.055Z,1008.11
2019-05-22T11:50:02.074Z,1008.09
2019-05-22T11:51:01.856Z,1008.16
2019-05-22T11:52:01.757Z,1008.12
2019-05-22T11:53:01.655Z,1008.14
2019-05-22T11:54:09.423Z,1008.14
2019-05-22T11:55:01.457Z,1008.13
2019-05-22T11:56:01.360Z,1008.12
2019-05-22T11:57:01.259Z,1008.13
2019-05-22T11:58:01.195Z,1008.19
2019-05-22T11:59:01.128Z,1008.15
2019-05-22T12:00:00.997Z,1008.19
2019-05-22T12:01:00.861Z,1008.15
2019-05-22T12:02:00.764Z,1008.15
2019-05-22T12:03:00.667Z,1008.15
2019-05-22T12:04:00.581Z,1008.15